createdAt,value
2023-05-07T00:01:31.127Z,101011.27
2023-05-07T00:03:59.098Z,101013.63
2023-05-07T00:06:27.780Z,101014.54
2023-05-07T00:08:55.754Z,101012.54
2023-05-07T00:11:23.630Z,101014.37
2023-05-07T00:13:51.456Z,101013.09
2023-05-07T00:16:19.234Z,101012.23
2023-05-07T00:18:47.139Z,101007.59
2023-05-07T00:21:15.091Z,101010.30
2023-05-07T00:23:43.074Z,101011.98
2023-05-07T00:26:10.973Z,101010.38
2023-05-07T00:28:39.045Z,101013.52
2023-05-07T00:31:06.905Z,101012.42
2023-05-07T00:33:34.628Z,101016.20
2023-05-07T00:36:03.163Z,101016.12
2023-05-07T00:38:30.934Z,101015.63
2023-05-07T00:40:58.681Z,101017.27
2023-05-07T00:43:26.562Z,101020.27
2023-05-07T00:45:54.702Z,101025.73
2023-05-07T00:48:22.706Z,101025.81
2023-05-07T00:50:50.761Z,101025.87
2023-05-07T00:53:18.471Z,101031.18
2023-05-07T00:55:46.302Z,101031.27
2023-05-07T00:58:14.440Z,101032.23
2023-05-07T01:00:42.417Z,101033.59
2023-05-07T01:03:10.561Z,101026.76
2023-05-07T01:05:39.435Z,101031.02
2023-05-07T01:08:07.873Z,101028.98
2023-05-07T01:10:35.848Z,101028.25
2023-05-07T01:13:04.094Z,101027.89
2023-05-07T01:15:31.882Z,101029.41
2023-05-07T01:17:59.992Z,101033.04
2023-05-07T01:20:32.494Z,101034.42
2023-05-07T01:23:01.914Z,101039.14
2023-05-07T01:25:30.059Z,101042.17
2023-05-07T01:28:01.215Z,101042.77
2023-05-07T01:30:31.561Z,101040.55
2023-05-07T01:33:01.852Z,101043.04
2023-05-07T01:35:34.905Z,101043.75
2023-05-07T01:38:05.467Z,101043.73
2023-05-07T01:40:35.100Z,101041.09
2023-05-07T01:43:06.578Z,101042.09
2023-05-07T01:45:36.210Z,101043.42
2023-05-07T01:48:04.823Z,101039.30
2023-05-07T01:50:33.663Z,101038.99
2023-05-07T01:53:02.774Z,101039.77
2023-05-07T01:55:31.085Z,101039.77
2023-05-07T01:57:58.892Z,101043.17
2023-05-07T02:00:26.742Z,101043.89
2023-05-07T02:02:54.752Z,101042.52
2023-05-07T02:05:27.966Z,101040.76
2023-05-07T02:08:08.292Z,101042.78
2023-05-07T02:10:37.034Z,101043.92
2023-05-07T02:13:06.962Z,101046.27
2023-05-07T02:15:35.083Z,101043.53
2023-05-07T02:18:07.466Z,101042.08
2023-05-07T02:20:35.387Z,101043.94
2023-05-07T02:23:03.991Z,101044.88
2023-05-07T02:25:31.880Z,101051.54
2023-05-07T02:27:59.957Z,101052.44
2023-05-07T02:30:40.297Z,101054.33
2023-05-07T02:33:09.699Z,101057.47
2023-05-07T02:35:37.771Z,101056.65
2023-05-07T02:38:05.557Z,101060.13
2023-05-07T02:40:39.772Z,101061.38
2023-05-07T02:43:07.802Z,101060.35
2023-05-07T02:45:35.688Z,101061.39
2023-05-07T02:48:04.687Z,101065.17
2023-05-07T02:50:33.556Z,101059.23
2023-05-07T02:53:01.485Z,101060.41
2023-05-07T02:55:29.558Z,101059.45
2023-05-07T02:57:57.454Z,101059.76
2023-05-07T03:00:25.741Z,101063.29
2023-05-07T03:03:16.478Z,101066.27
2023-05-07T03:05:44.407Z,101069.27
2023-05-07T03:08:12.206Z,101070.83
2023-05-07T03:10:40.089Z,101073.92
2023-05-07T03:13:08.083Z,101071.77
2023-05-07T03:15:36.058Z,101072.05
2023-05-07T03:18:04.265Z,101074.44
2023-05-07T03:20:32.544Z,101075.31
2023-05-07T03:23:00.641Z,101081.33
2023-05-07T03:25:28.863Z,101080.08
2023-05-07T03:27:57.697Z,101085.95
2023-05-07T03:30:28.505Z,101082.98
2023-05-07T03:32:56.766Z,101085.81
2023-05-07T03:35:24.918Z,101090.55
2023-05-07T03:37:53.219Z,101092.66
2023-05-07T03:40:21.545Z,101095.34
2023-05-07T03:42:51.851Z,101101.09
2023-05-07T03:45:20.880Z,101099.61
2023-05-07T03:47:53.624Z,101104.76
2023-05-07T03:50:22.417Z,101107.64
2023-05-07T03:52:50.550Z,101109.13
2023-05-07T03:55:19.603Z,101113.61
2023-05-07T03:57:51.649Z,101116.95
2023-05-07T04:00:21.242Z,101118.38
2023-05-07T04:02:49.132Z,101119.61
2023-05-07T04:05:21.177Z,101124.16
2023-05-07T04:07:50.609Z,101121.70
2023-05-07T04:10:21.055Z,101125.60
2023-05-07T04:12:49.848Z,101129.76
2023-05-07T04:15:20.871Z,101129.12
2023-05-07T04:17:48.628Z,101135.33
2023-05-07T04:20:18.606Z,101135.39
2023-05-07T04:22:49.083Z,101134.48
2023-05-07T04:25:17.519Z,101139.04
2023-05-07T04:27:45.676Z,101140.86
2023-05-07T04:30:14.681Z,101143.90
2023-05-07T04:32:42.790Z,101149.80
2023-05-07T04:35:11.116Z,101155.17
2023-05-07T04:37:39.547Z,101155.27
2023-05-07T04:40:08.841Z,101157.17
2023-05-07T04:42:36.883Z,101156.49
2023-05-07T04:45:05.894Z,101158.17
2023-05-07T04:47:34.303Z,101164.05
2023-05-07T04:50:02.997Z,101164.09
2023-05-07T04:52:30.746Z,101173.52
2023-05-07T04:55:00.957Z,101175.52
2023-05-07T04:57:29.013Z,101179.69
2023-05-07T04:59:56.755Z,101183.25
2023-05-07T05:02:24.512Z,101187.55
2023-05-07T05:04:52.751Z,101189.38
2023-05-07T05:07:21.519Z,101191.25
2023-05-07T05:09:49.371Z,101193.93
2023-05-07T05:12:17.191Z,101197.21
2023-05-07T05:14:46.238Z,101201.27
2023-05-07T05:17:14.024Z,101203.12
2023-05-07T05:19:42.528Z,101204.23
2023-05-07T05:22:10.587Z,101201.86
2023-05-07T05:24:38.382Z,101202.70
2023-05-07T05:27:06.446Z,101208.48
2023-05-07T05:29:34.328Z,101205.83
2023-05-07T05:32:02.678Z,101203.31
2023-05-07T05:34:31.499Z,101208.17
2023-05-07T05:37:00.630Z,101208.47
2023-05-07T05:39:28.624Z,101214.15
2023-05-07T05:41:56.727Z,101213.58
2023-05-07T05:44:24.952Z,101212.11
2023-05-07T05:46:52.977Z,101215.08
2023-05-07T05:49:20.805Z,101220.47
2023-05-07T05:51:48.652Z,101218.05
2023-05-07T05:54:16.503Z,101226.21
2023-05-07T05:56:44.627Z,101222.27
2023-05-07T05:59:12.516Z,101229.34
2023-05-07T06:01:41.089Z,101233.09
2023-05-07T06:04:08.924Z,101232.44
2023-05-07T06:06:36.784Z,101238.00
2023-05-07T06:09:04.923Z,101241.21
2023-05-07T06:11:38.074Z,101239.98
2023-05-07T06:14:06.890Z,101244.09
2023-05-07T06:16:35.200Z,101254.20
2023-05-07T06:19:03.019Z,101253.14
2023-05-07T06:21:31.758Z,101250.63
2023-05-07T06:23:59.678Z,101254.00
2023-05-07T06:26:27.763Z,101249.90
2023-05-07T06:28:55.685Z,101247.66
2023-05-07T06:31:33.009Z,101238.02
2023-05-07T06:34:03.973Z,101237.31
2023-05-07T06:36:36.176Z,101239.21
2023-05-07T06:39:11.535Z,101239.79
2023-05-07T06:41:40.025Z,101237.95
2023-05-07T06:44:10.733Z,101241.17
2023-05-07T06:46:43.444Z,101239.54
2023-05-07T06:49:11.924Z,101243.73
2023-05-07T06:51:39.924Z,101249.60
2023-05-07T06:54:08.388Z,101249.86
2023-05-07T06:56:38.075Z,101250.80
2023-05-07T06:59:06.054Z,101255.46
2023-05-07T07:01:37.496Z,101260.37
2023-05-07T07:04:05.938Z,101264.23
2023-05-07T07:06:34.500Z,101272.80
2023-05-07T07:09:03.221Z,101266.94
2023-05-07T07:11:31.697Z,101272.13
2023-05-07T07:14:00.314Z,101271.15
2023-05-07T07:16:29.961Z,101272.20
2023-05-07T07:18:58.311Z,101273.98
2023-05-07T07:21:26.599Z,101276.84
2023-05-07T07:23:54.412Z,101277.17
2023-05-07T07:26:22.468Z,101279.79
2023-05-07T07:28:50.321Z,101283.04
2023-05-07T07:31:20.587Z,101283.84
2023-05-07T07:33:48.921Z,101286.73
2023-05-07T07:36:17.419Z,101287.59
2023-05-07T07:38:45.232Z,101287.84
2023-05-07T07:41:13.638Z,101284.92
2023-05-07T07:43:41.418Z,101284.16
2023-05-07T07:46:09.764Z,101281.79
2023-05-07T07:48:37.673Z,101284.27
2023-05-07T07:51:05.934Z,101286.39
2023-05-07T07:53:34.348Z,101286.27
2023-05-07T07:56:05.036Z,101289.40
2023-05-07T07:58:36.589Z,101290.88
2023-05-07T08:01:04.974Z,101293.58
2023-05-07T08:03:33.706Z,101296.50
2023-05-07T08:06:02.726Z,101297.02
2023-05-07T08:08:31.050Z,101300.73
2023-05-07T08:10:58.919Z,101298.90
2023-05-07T08:13:30.402Z,101302.57
2023-05-07T08:15:58.184Z,101305.33
2023-05-07T08:18:29.526Z,101303.91
2023-05-07T08:20:57.921Z,101307.27
2023-05-07T08:23:27.049Z,101312.59
2023-05-07T08:25:55.318Z,101310.42
2023-05-07T08:28:25.705Z,101310.08
2023-05-07T08:30:53.800Z,101311.65
2023-05-07T08:33:22.003Z,101316.69
2023-05-07T08:35:49.771Z,101321.95
2023-05-07T08:38:17.533Z,101326.45
2023-05-07T08:40:45.565Z,101326.73
2023-05-07T08:43:19.411Z,101331.56
2023-05-07T08:45:51.965Z,101337.02
2023-05-07T08:48:26.433Z,101336.71
2023-05-07T08:51:04.607Z,101343.17
2023-05-07T08:53:33.017Z,101342.83
2023-05-07T08:56:02.138Z,101350.63
2023-05-07T08:58:30.431Z,101349.63
2023-05-07T09:00:59.566Z,101349.58
2023-05-07T09:03:27.620Z,101351.66
2023-05-07T09:05:55.882Z,101352.52
2023-05-07T09:08:27.065Z,101350.30
2023-05-07T09:10:55.638Z,101352.62
2023-05-07T09:13:24.255Z,101353.39
2023-05-07T09:15:52.201Z,101356.09
2023-05-07T09:18:20.667Z,101361.52
2023-05-07T09:20:49.222Z,101371.55
2023-05-07T09:23:17.316Z,101377.52
2023-05-07T09:25:45.380Z,101378.84
2023-05-07T09:28:21.380Z,101387.39
2023-05-07T09:30:49.183Z,101385.38
2023-05-07T09:33:17.380Z,101390.73
2023-05-07T09:35:52.464Z,101392.33
2023-05-07T09:38:22.666Z,101390.11
2023-05-07T09:41:13.062Z,101387.77
2023-05-07T09:43:45.740Z,101385.70
2023-05-07T09:46:16.386Z,101386.84
2023-05-07T09:48:50.520Z,101386.34
2023-05-07T09:51:18.671Z,101387.10
2023-05-07T09:53:47.369Z,101390.64
2023-05-07T09:56:16.851Z,101391.27
2023-05-07T09:58:46.216Z,101396.34
2023-05-07T10:01:14.210Z,101399.81
2023-05-07T10:03:43.586Z,101404.96
2023-05-07T10:06:12.997Z,101406.56
2023-05-07T10:08:41.551Z,101409.27
2023-05-07T10:11:10.636Z,101411.36
2023-05-07T10:13:39.147Z,101406.77
2023-05-07T10:16:09.050Z,101404.52
2023-05-07T10:18:42.480Z,101410.10
2023-05-07T10:21:20.117Z,101413.37
2023-05-07T10:24:03.166Z,101417.41
2023-05-07T10:26:33.946Z,101417.27
2023-05-07T10:29:12.012Z,101416.02
2023-05-07T10:31:51.722Z,101415.71
2023-05-07T10:34:26.952Z,101415.07
2023-05-07T10:36:56.580Z,101411.84
2023-05-07T10:39:25.124Z,101413.17
2023-05-07T10:41:53.939Z,101411.08
2023-05-07T10:44:29.528Z,101417.78
2023-05-07T10:47:12.765Z,101427.01
2023-05-07T10:49:45.637Z,101428.02
2023-05-07T10:52:25.297Z,101432.42
2023-05-07T10:55:18.656Z,101432.79
2023-05-07T10:57:52.085Z,101432.52
2023-05-07T11:00:38.000Z,101434.27
2023-05-07T11:03:08.140Z,101435.71
2023-05-07T11:05:43.127Z,101437.92
2023-05-07T11:08:20.355Z,101440.41
2023-05-07T11:11:14.355Z,101442.60
2023-05-07T11:13:51.552Z,101439.95
2023-05-07T11:16:42.699Z,101441.15
2023-05-07T11:19:49.512Z,101443.14
2023-05-07T11:22:29.916Z,101444.27
2023-05-07T11:25:07.807Z,101439.48
2023-05-07T11:27:36.268Z,101443.65
2023-05-07T11:30:05.028Z,101449.70
2023-05-07T11:32:33.646Z,101448.90
2023-05-07T11:35:02.357Z,101450.59
2023-05-07T11:37:31.450Z,101453.20
2023-05-07T11:40:07.786Z,101457.86
2023-05-07T11:42:40.197Z,101458.46
2023-05-07T11:45:09.484Z,101457.84
2023-05-07T11:47:37.536Z,101459.57
2023-05-07T11:50:08.842Z,101460.13
2023-05-07T11:52:36.974Z,101461.09
2023-05-07T11:55:05.761Z,101459.41
2023-05-07T11:57:34.813Z,101459.77
2023-05-07T12:00:05.645Z,101454.75
2023-05-07T12:02:43.481Z,101456.42
2023-05-07T12:05:11.573Z,101454.75
2023-05-07T12:07:39.721Z,101459.52
2023-05-07T12:10:08.106Z,101461.06
2023-05-07T12:12:46.478Z,101462.40
2023-05-07T12:15:18.004Z,101464.84
2023-05-07T12:17:45.908Z,101464.64
2023-05-07T12:20:14.115Z,101464.76
2023-05-07T12:22:42.508Z,101462.77
2023-05-07T12:25:10.828Z,101462.40
2023-05-07T12:27:40.203Z,101466.76
2023-05-07T12:30:11.295Z,101476.95
2023-05-07T12:32:39.213Z,101476.27
2023-05-07T12:35:07.794Z,101479.80
2023-05-07T12:37:36.794Z,101481.77
2023-05-07T12:40:11.526Z,101474.61
2023-05-07T12:42:41.499Z,101471.58
2023-05-07T12:45:11.241Z,101469.76
2023-05-07T12:47:39.676Z,101480.11
2023-05-07T12:50:08.066Z,101486.86
2023-05-07T12:52:35.994Z,101484.90
2023-05-07T12:55:09.311Z,101490.36
2023-05-07T12:57:42.914Z,101492.02
2023-05-07T13:00:11.904Z,101488.08
2023-05-07T13:02:41.505Z,101493.92
2023-05-07T13:05:10.122Z,101488.61
2023-05-07T13:07:38.691Z,101486.46
2023-05-07T13:10:09.573Z,101482.70
2023-05-07T13:12:37.578Z,101481.22
2023-05-07T13:15:06.048Z,101479.41
2023-05-07T13:17:33.846Z,101474.08
2023-05-07T13:20:01.701Z,101478.20
2023-05-07T13:22:30.390Z,101473.67
2023-05-07T13:24:58.170Z,101475.04
2023-05-07T13:27:26.585Z,101474.89
2023-05-07T13:29:54.572Z,101477.63
2023-05-07T13:32:22.313Z,101477.45
2023-05-07T13:34:50.117Z,101479.81
2023-05-07T13:37:17.846Z,101473.30
2023-05-07T13:39:46.565Z,101473.50
2023-05-07T13:42:28.679Z,101465.24
2023-05-07T13:45:11.855Z,101464.40
2023-05-07T13:47:40.157Z,101460.13
2023-05-07T13:50:09.918Z,101461.98
2023-05-07T13:52:39.061Z,101465.39
2023-05-07T13:55:07.476Z,101471.60
2023-05-07T13:57:35.490Z,101469.46
2023-05-07T14:00:06.506Z,101476.21
2023-05-07T14:02:43.265Z,101477.95
2023-05-07T14:05:11.287Z,101482.14
2023-05-07T14:07:39.125Z,101482.27
2023-05-07T14:10:07.940Z,101480.62
2023-05-07T14:12:36.392Z,101481.81
2023-05-07T14:15:04.964Z,101486.63
2023-05-07T14:17:32.818Z,101492.36
2023-05-07T14:20:00.898Z,101491.19
2023-05-07T14:22:28.676Z,101495.38
2023-05-07T14:25:06.450Z,101494.23
2023-05-07T14:27:34.894Z,101497.89
2023-05-07T14:30:02.974Z,101488.20
2023-05-07T14:32:30.951Z,101491.42
2023-05-07T14:34:58.792Z,101488.80
2023-05-07T14:37:26.662Z,101486.44
2023-05-07T14:39:54.401Z,101494.15
2023-05-07T14:42:22.169Z,101492.31
2023-05-07T14:44:50.208Z,101487.43
2023-05-07T14:47:19.885Z,101486.20
2023-05-07T14:49:48.246Z,101492.84
2023-05-07T14:52:16.376Z,101499.08
2023-05-07T14:54:44.225Z,101496.42
2023-05-07T14:57:17.220Z,101496.52
2023-05-07T14:59:45.286Z,101498.50
2023-05-07T15:02:13.357Z,101497.29
2023-05-07T15:04:46.880Z,101498.02
2023-05-07T15:07:16.399Z,101499.30
2023-05-07T15:09:45.425Z,101501.41
2023-05-07T15:12:13.179Z,101502.88
2023-05-07T15:14:41.176Z,101502.88
2023-05-07T15:17:09.075Z,101505.44
2023-05-07T15:19:36.987Z,101507.93
2023-05-07T15:22:04.992Z,101510.15
2023-05-07T15:24:32.869Z,101510.61
2023-05-07T15:27:02.045Z,101514.73
2023-05-07T15:29:29.961Z,101516.48
2023-05-07T15:31:58.449Z,101517.32
2023-05-07T15:34:26.528Z,101510.38
2023-05-07T15:36:54.302Z,101516.23
2023-05-07T15:39:24.214Z,101518.14
2023-05-07T15:41:52.924Z,101521.45
2023-05-07T15:44:20.737Z,101517.52
2023-05-07T15:46:48.469Z,101515.70
2023-05-07T15:49:16.935Z,101514.88
2023-05-07T15:51:45.453Z,101513.05
2023-05-07T15:54:13.267Z,101509.98
2023-05-07T15:56:42.776Z,101512.44
2023-05-07T15:59:12.931Z,101516.57
2023-05-07T16:01:41.392Z,101510.27
2023-05-07T16:04:11.861Z,101512.65
2023-05-07T16:06:40.009Z,101510.97
2023-05-07T16:09:10.415Z,101513.55
2023-05-07T16:11:38.828Z,101520.69
2023-05-07T16:14:06.853Z,101521.52
2023-05-07T16:16:37.926Z,101518.98
2023-05-07T16:19:07.898Z,101515.71
2023-05-07T16:21:36.606Z,101513.36
2023-05-07T16:24:04.955Z,101509.80
2023-05-07T16:26:32.819Z,101510.62
2023-05-07T16:29:02.285Z,101512.77
2023-05-07T16:31:33.508Z,101512.27
2023-05-07T16:34:02.869Z,101510.73
2023-05-07T16:36:30.663Z,101515.36
2023-05-07T16:38:59.460Z,101517.69
2023-05-07T16:41:28.551Z,101516.34
2023-05-07T16:43:57.896Z,101519.88
2023-05-07T16:46:28.220Z,101522.30
2023-05-07T16:48:56.615Z,101524.21
2023-05-07T16:51:25.761Z,101521.70
2023-05-07T16:53:56.361Z,101526.36
2023-05-07T16:56:24.881Z,101525.20
2023-05-07T16:58:54.290Z,101524.95
2023-05-07T17:01:24.721Z,101522.04
2023-05-07T17:03:54.563Z,101522.19
2023-05-07T17:06:23.888Z,101522.80
2023-05-07T17:08:52.482Z,101526.48
2023-05-07T17:11:22.000Z,101523.73
2023-05-07T17:13:52.112Z,101521.88
2023-05-07T17:16:20.342Z,101521.98
2023-05-07T17:18:49.083Z,101525.13
2023-05-07T17:21:17.976Z,101524.50
2023-05-07T17:23:47.880Z,101525.19
2023-05-07T17:26:17.595Z,101529.78
2023-05-07T17:28:46.588Z,101533.52
2023-05-07T17:31:14.858Z,101535.64
2023-05-07T17:33:43.421Z,101541.45
2023-05-07T17:36:12.985Z,101542.75
2023-05-07T17:38:41.564Z,101544.86
2023-05-07T17:41:10.496Z,101542.90
2023-05-07T17:43:38.730Z,101549.04
2023-05-07T17:46:09.059Z,101546.52
2023-05-07T17:48:37.776Z,101547.20
2023-05-07T17:51:06.196Z,101549.59
2023-05-07T17:53:37.300Z,101554.76
2023-05-07T17:56:06.370Z,101557.67
2023-05-07T17:58:41.254Z,101563.48
2023-05-07T18:01:18.394Z,101565.25
2023-05-07T18:03:46.556Z,101568.91
2023-05-07T18:06:19.035Z,101572.20
2023-05-07T18:08:47.670Z,101572.83
2023-05-07T18:11:17.299Z,101575.59
2023-05-07T18:13:46.259Z,101579.77
2023-05-07T18:16:15.086Z,101581.62
2023-05-07T18:18:44.540Z,101584.87
2023-05-07T18:21:21.651Z,101585.15
2023-05-07T18:23:50.282Z,101589.92
2023-05-07T18:26:18.224Z,101590.89
2023-05-07T18:28:46.632Z,101592.27
2023-05-07T18:31:15.851Z,101595.48
2023-05-07T18:33:46.624Z,101598.21
2023-05-07T18:36:18.269Z,101602.64
2023-05-07T18:38:46.478Z,101609.23
2023-05-07T18:41:14.304Z,101611.80
2023-05-07T18:43:46.133Z,101611.98
2023-05-07T18:46:14.339Z,101614.02
2023-05-07T18:48:42.226Z,101617.08
2023-05-07T18:51:12.966Z,101618.63
2023-05-07T18:53:41.122Z,101621.27
2023-05-07T18:56:10.410Z,101626.63
2023-05-07T18:58:38.626Z,101632.06
2023-05-07T19:01:08.992Z,101632.78
2023-05-07T19:03:38.827Z,101633.91
2023-05-07T19:06:07.222Z,101632.14
2023-05-07T19:08:36.455Z,101638.63
2023-05-07T19:11:05.015Z,101640.96
2023-05-07T19:13:33.803Z,101648.41
2023-05-07T19:16:01.735Z,101653.54
2023-05-07T19:18:32.116Z,101651.67
2023-05-07T19:21:01.550Z,101656.73
2023-05-07T19:23:31.649Z,101659.91
2023-05-07T19:26:02.478Z,101665.23
2023-05-07T19:28:31.059Z,101662.77
2023-05-07T19:31:00.684Z,101661.86
2023-05-07T19:33:30.816Z,101663.02
2023-05-07T19:36:00.378Z,101666.63
2023-05-07T19:38:29.563Z,101669.67
2023-05-07T19:41:00.918Z,101672.08
2023-05-07T19:43:35.939Z,101678.49
2023-05-07T19:46:05.192Z,101675.34
2023-05-07T19:48:33.084Z,101680.21
2023-05-07T19:51:01.127Z,101678.99
2023-05-07T19:53:30.160Z,101682.10
2023-05-07T19:56:06.048Z,101680.00
2023-05-07T19:58:34.641Z,101679.11
2023-05-07T20:01:03.563Z,101677.06
2023-05-07T20:03:32.749Z,101683.52
2023-05-07T20:06:01.439Z,101683.65
2023-05-07T20:08:29.656Z,101682.34
2023-05-07T20:10:58.882Z,101686.61
2023-05-07T20:13:27.443Z,101690.70
2023-05-07T20:16:00.225Z,101691.15
2023-05-07T20:18:28.965Z,101692.98
2023-05-07T20:20:56.868Z,101698.73
2023-05-07T20:23:25.290Z,101700.38
2023-05-07T20:25:53.509Z,101704.64
2023-05-07T20:28:21.600Z,101707.71
2023-05-07T20:30:49.392Z,101710.37
2023-05-07T20:33:17.741Z,101717.11
2023-05-07T20:35:45.645Z,101715.81
2023-05-07T20:38:13.849Z,101713.32
2023-05-07T20:53:56.209Z,101725.04
2023-05-07T20:56:24.042Z,101727.25
2023-05-07T20:58:51.823Z,101733.86
2023-05-07T21:01:19.603Z,101736.96
2023-05-07T21:03:47.424Z,101733.16
2023-05-07T21:06:15.178Z,101735.12
2023-05-07T21:08:46.033Z,101736.86
2023-05-07T21:11:13.774Z,101740.64
2023-05-07T21:13:41.521Z,101741.66
2023-05-07T21:16:10.250Z,101745.04
2023-05-07T21:18:38.236Z,101744.67
2023-05-07T21:21:09.481Z,101748.09
2023-05-07T21:23:37.682Z,101749.98
2023-05-07T21:26:08.612Z,101752.75
2023-05-07T21:28:36.505Z,101756.55
2023-05-07T21:31:04.306Z,101761.46
2023-05-07T21:33:32.045Z,101763.45
2023-05-07T21:35:59.807Z,101767.23
2023-05-07T21:38:27.605Z,101767.33
2023-05-07T21:40:56.660Z,101766.84
2023-05-07T21:43:24.646Z,101770.48
2023-05-07T21:45:52.397Z,101776.51
2023-05-07T21:48:22.194Z,101777.78
2023-05-07T21:51:01.510Z,101780.39
2023-05-07T21:53:30.015Z,101781.13
2023-05-07T21:56:00.413Z,101785.40
2023-05-07T21:58:29.419Z,101787.30
2023-05-07T22:00:57.736Z,101789.52
2023-05-07T22:03:25.998Z,101792.60
2023-05-07T22:05:53.827Z,101794.41
2023-05-07T22:08:21.683Z,101794.02
2023-05-07T22:10:49.545Z,101793.81
2023-05-07T22:13:17.417Z,101794.69
2023-05-07T22:15:56.753Z,101796.64
2023-05-07T22:18:26.409Z,101798.64
2023-05-07T22:20:54.365Z,101795.21
2023-05-07T22:23:22.283Z,101797.80
2023-05-07T22:25:50.025Z,101797.49
2023-05-07T22:28:17.811Z,101795.14
2023-05-07T22:30:45.644Z,101796.93
2023-05-07T22:33:13.501Z,101796.03
2023-05-07T22:35:41.372Z,101795.76
2023-05-07T22:38:09.157Z,101796.29
2023-05-07T22:40:36.949Z,101798.27
2023-05-07T22:43:04.923Z,101797.17
2023-05-07T22:45:32.705Z,101793.48
2023-05-07T22:48:00.605Z,101798.38
2023-05-07T22:50:28.359Z,101796.90
2023-05-07T22:52:56.149Z,101798.92
2023-05-07T22:55:23.937Z,101796.45
2023-05-07T22:57:51.752Z,101794.30
2023-05-07T23:00:19.842Z,101790.57
2023-05-07T23:02:47.722Z,101788.65
2023-05-07T23:05:17.511Z,101790.50
2023-05-07T23:07:45.170Z,101787.69
2023-05-07T23:10:13.169Z,101789.75
2023-05-07T23:12:41.142Z,101789.43
2023-05-07T23:15:09.467Z,101794.04
2023-05-07T23:17:37.288Z,101792.72
2023-05-07T23:20:06.344Z,101797.04
2023-05-07T23:22:34.223Z,101800.45
2023-05-07T23:25:03.154Z,101798.48
2023-05-07T23:27:31.990Z,101798.24
2023-05-07T23:29:59.782Z,101796.46
2023-05-07T23:32:27.612Z,101799.02
2023-05-07T23:34:56.827Z,101795.95
2023-05-07T23:37:24.621Z,101796.57
2023-05-07T23:39:55.828Z,101796.70
2023-05-07T23:42:24.083Z,101790.73
2023-05-07T23:44:52.311Z,101786.92
2023-05-07T23:47:21.522Z,101786.65
2023-05-07T23:49:49.641Z,101786.08
2023-05-07T23:52:17.514Z,101783.98
2023-05-07T23:54:45.286Z,101784.69
2023-05-07T23:57:14.383Z,101780.13
2023-05-07T23:59:42.443Z,101780.15
